sensor_id;sensor_type;location;lat;lon;timestamp;pressure;altitude;pressure_sealevel;temperature;humidity
71791;BME280;59638;52.126;5.434;2023-05-02T00:01:46;102146.91;;;10.22;100.00
71791;BME280;59638;52.126;5.434;2023-05-02T00:04:12;102143.34;;;10.23;100.00
71791;BME280;59638;52.126;5.434;2023-05-02T00:06:39;102138.91;;;10.23;100.00
71791;BME280;59638;52.126;5.434;2023-05-02T00:09:07;102141.47;;;10.25;100.00
71791;BME280;59638;52.126;5.434;2023-05-02T00:11:34;102141.47;;;10.25;100.00
71791;BME280;59638;52.126;5.434;2023-05-02T00:14:00;102140.63;;;10.24;100.00
71791;BME280;59638;52.126;5.434;2023-05-02T00:16:27;102139.69;;;10.25;100.00
71791;BME280;59638;52.126;5.434;2023-05-02T00:18:53;102137.66;;;10.29;100.00
71791;BME280;59638;52.126;5.434;2023-05-02T00:21:19;102144.00;;;10.26;100.00
71791;BME280;59638;52.126;5.434;2023-05-02T00:23:46;102138.72;;;10.26;100.00
71791;BME280;59638;52.126;5.434;2023-05-02T00:26:12;102141.25;;;10.28;100.00
71791;BME280;59638;52.126;5.434;2023-05-02T00:28:39;102149.72;;;10.33;100.00
71791;BME280;59638;52.126;5.434;2023-05-02T00:31:05;102144.44;;;10.33;100.00
71791;BME280;59638;52.126;5.434;2023-05-02T00:33:32;102143.28;;;10.37;100.00
71791;BME280;59638;52.126;5.434;2023-05-02T00:35:58;102151.22;;;10.37;100.00
71791;BME280;59638;52.126;5.434;2023-05-02T00:38:24;102145.94;;;10.37;100.00
71791;BME280;59638;52.126;5.434;2023-05-02T00:40:51;102151.94;;;10.39;100.00
71791;BME280;59638;52.126;5.434;2023-05-02T00:43:18;102149.19;;;10.41;100.00
71791;BME280;59638;52.126;5.434;2023-05-02T00:45:45;102147.38;;;10.41;100.00
71791;BME280;59638;52.126;5.434;2023-05-02T00:48:12;102146.56;;;10.41;100.00
71791;BME280;59638;52.126;5.434;2023-05-02T00:50:40;102157.00;;;10.42;100.00
71791;BME280;59638;52.126;5.434;2023-05-02T00:53:08;102157.94;;;10.41;100.00
71791;BME280;59638;52.126;5.434;2023-05-02T00:55:35;102161.53;;;10.40;100.00
71791;BME280;59638;52.126;5.434;2023-05-02T00:58:04;102165.13;;;10.39;100.00
71791;BME280;59638;52.126;5.434;2023-05-02T01:03:40;102176.44;;;10.41;100.00
71791;BME280;59638;52.126;5.434;2023-05-02T01:06:35;102177.38;;;10.40;100.00
71791;BME280;59638;52.126;5.434;2023-05-02T01:09:33;102183.63;;;10.39;100.00
71791;BME280;59638;52.126;5.434;2023-05-02T01:12:26;102180.25;;;10.37;100.00
71791;BME280;59638;52.126;5.434;2023-05-02T01:14:55;102173.25;;;10.36;100.00
71791;BME280;59638;52.126;5.434;2023-05-02T01:17:26;102171.56;;;10.35;100.00
71791;BME280;59638;52.126;5.434;2023-05-02T01:19:57;102174.19;;;10.35;100.00
71791;BME280;59638;52.126;5.434;2023-05-02T01:22:27;102183.91;;;10.34;100.00
71791;BME280;59638;52.126;5.434;2023-05-02T01:28:04;102194.41;;;10.22;100.00
71791;BME280;59638;52.126;5.434;2023-05-02T01:30:37;102187.84;;;10.15;100.00
71791;BME280;59638;52.126;5.434;2023-05-02T01:33:09;102192.59;;;10.09;100.00
71791;BME280;59638;52.126;5.434;2023-05-02T01:35:36;102198.81;;;10.08;100.00
71791;BME280;59638;52.126;5.434;2023-05-02T01:38:04;102191.84;;;10.07;100.00
71791;BME280;59638;52.126;5.434;2023-05-02T01:40:33;102200.72;;;10.06;100.00
71791;BME280;59638;52.126;5.434;2023-05-02T01:43:02;102201.66;;;10.05;100.00
71791;BME280;59638;52.126;5.434;2023-05-02T01:45:32;102214.84;;;10.05;100.00
71791;BME280;59638;52.126;5.434;2023-05-02T01:48:00;102209.59;;;10.05;100.00
71791;BME280;59638;52.126;5.434;2023-05-02T01:50:27;102206.19;;;10.03;100.00
71791;BME280;59638;52.126;5.434;2023-05-02T01:52:54;102208.19;;;10.00;100.00
71791;BME280;59638;52.126;5.434;2023-05-02T01:55:22;102228.63;;;9.96;100.00
71791;BME280;59638;52.126;5.434;2023-05-02T01:57:50;102228.84;;;9.93;100.00
71791;BME280;59638;52.126;5.434;2023-05-02T02:00:18;102231.59;;;9.92;100.00
71791;BME280;59638;52.126;5.434;2023-05-02T02:02:46;102227.44;;;9.88;100.00
71791;BME280;59638;52.126;5.434;2023-05-02T02:05:15;102241.69;;;9.85;100.00
71791;BME280;59638;52.126;5.434;2023-05-02T02:07:43;102233.97;;;9.82;100.00
71791;BME280;59638;52.126;5.434;2023-05-02T02:10:10;102229.53;;;9.82;100.00
71791;BME280;59638;52.126;5.434;2023-05-02T02:12:50;102234.91;;;9.81;100.00
71791;BME280;59638;52.126;5.434;2023-05-02T02:15:22;102230.59;;;9.80;100.00
71791;BME280;59638;52.126;5.434;2023-05-02T02:17:58;102236.03;;;9.77;100.00
71791;BME280;59638;52.126;5.434;2023-05-02T02:20:27;102237.09;;;9.74;99.96
71791;BME280;59638;52.126;5.434;2023-05-02T02:22:55;102247.75;;;9.73;100.00
71791;BME280;59638;52.126;5.434;2023-05-02T02:25:24;102256.38;;;9.75;100.00
71791;BME280;59638;52.126;5.434;2023-05-02T02:27:52;102263.47;;;9.74;100.00
71791;BME280;59638;52.126;5.434;2023-05-02T02:30:18;102267.88;;;9.74;99.86
71791;BME280;59638;52.126;5.434;2023-05-02T02:32:45;102266.19;;;9.73;99.93
71791;BME280;59638;52.126;5.434;2023-05-02T02:35:12;102269.78;;;9.72;99.99
71791;BME280;59638;52.126;5.434;2023-05-02T02:37:45;102264.13;;;9.64;99.66
71791;BME280;59638;52.126;5.434;2023-05-02T02:43:11;102281.94;;;9.60;99.11
71791;BME280;59638;52.126;5.434;2023-05-02T02:45:49;102283.00;;;9.58;98.58
71791;BME280;59638;52.126;5.434;2023-05-02T02:56:28;102284.41;;;9.49;97.20
71791;BME280;59638;52.126;5.434;2023-05-02T02:59:03;102291.09;;;9.40;96.92
71791;BME280;59638;52.126;5.434;2023-05-02T03:01:31;102294.09;;;9.34;97.24
71791;BME280;59638;52.126;5.434;2023-05-02T03:03:59;102295.03;;;9.33;97.10
71791;BME280;59638;52.126;5.434;2023-05-02T03:06:29;102291.66;;;9.31;97.55
71791;BME280;59638;52.126;5.434;2023-05-02T03:08:57;102302.84;;;9.35;97.26
71791;BME280;59638;52.126;5.434;2023-05-02T03:11:23;102306.22;;;9.37;97.23
71791;BME280;59638;52.126;5.434;2023-05-02T03:13:51;102308.69;;;9.40;97.34
71791;BME280;59638;52.126;5.434;2023-05-02T03:18:53;102313.88;;;9.41;96.71
71791;BME280;59638;52.126;5.434;2023-05-02T03:21:19;102317.44;;;9.40;96.03
71791;BME280;59638;52.126;5.434;2023-05-02T03:23:46;102318.28;;;9.41;96.25
71791;BME280;59638;52.126;5.434;2023-05-02T03:26:12;102317.44;;;9.40;96.46
71791;BME280;59638;52.126;5.434;2023-05-02T03:28:39;102322.72;;;9.40;96.54
71791;BME280;59638;52.126;5.434;2023-05-02T03:31:05;102330.03;;;9.35;96.50
71791;BME280;59638;52.126;5.434;2023-05-02T03:33:31;102328.56;;;9.31;96.38
71791;BME280;59638;52.126;5.434;2023-05-02T03:35:58;102333.84;;;9.31;96.24
71791;BME280;59638;52.126;5.434;2023-05-02T03:38:24;102333.25;;;9.26;96.19
71791;BME280;59638;52.126;5.434;2023-05-02T03:40:51;102337.75;;;9.24;96.81
71791;BME280;59638;52.126;5.434;2023-05-02T03:43:17;102350.00;;;9.25;96.37
71791;BME280;59638;52.126;5.434;2023-05-02T03:45:43;102335.22;;;9.22;96.63
71791;BME280;59638;52.126;5.434;2023-05-02T03:48:12;102354.50;;;9.23;96.64
71791;BME280;59638;52.126;5.434;2023-05-02T03:50:39;102360.44;;;9.26;97.07
71791;BME280;59638;52.126;5.434;2023-05-02T03:53:05;102353.56;;;9.24;96.44
71791;BME280;59638;52.126;5.434;2023-05-02T03:55:38;102350.19;;;9.22;96.42
71791;BME280;59638;52.126;5.434;2023-05-02T03:58:04;102357.50;;;9.17;96.86
71791;BME280;59638;52.126;5.434;2023-05-02T04:00:30;102356.00;;;9.13;97.53
71791;BME280;59638;52.126;5.434;2023-05-02T04:03:00;102361.63;;;9.07;98.29
71791;BME280;59638;52.126;5.434;2023-05-02T04:05:26;102362.00;;;9.01;98.41
71791;BME280;59638;52.126;5.434;2023-05-02T04:07:52;102368.00;;;9.03;98.82
71791;BME280;59638;52.126;5.434;2023-05-02T04:10:19;102371.84;;;8.97;98.48
71791;BME280;59638;52.126;5.434;2023-05-02T04:12:45;102368.47;;;8.95;98.11
71791;BME280;59638;52.126;5.434;2023-05-02T04:15:12;102372.88;;;8.94;98.67
71791;BME280;59638;52.126;5.434;2023-05-02T04:17:38;102365.94;;;8.93;98.61
71791;BME280;59638;52.126;5.434;2023-05-02T04:20:05;102374.00;;;8.90;98.27
71791;BME280;59638;52.126;5.434;2023-05-02T04:22:33;102377.75;;;8.86;98.50
71791;BME280;59638;52.126;5.434;2023-05-02T04:24:59;102381.34;;;8.85;97.63
71791;BME280;59638;52.126;5.434;2023-05-02T04:27:26;102381.59;;;8.81;97.76
71791;BME280;59638;52.126;5.434;2023-05-02T04:29:52;102395.00;;;8.76;97.63
71791;BME280;59638;52.126;5.434;2023-05-02T04:32:19;102392.97;;;8.81;97.42
71791;BME280;59638;52.126;5.434;2023-05-02T04:34:45;102395.25;;;8.87;97.81
71791;BME280;59638;52.126;5.434;2023-05-02T04:37:11;102400.41;;;8.89;97.01
71791;BME280;59638;52.126;5.434;2023-05-02T04:39:38;102410.84;;;8.90;96.19
71791;BME280;59638;52.126;5.434;2023-05-02T04:42:04;102418.75;;;8.90;96.06
71791;BME280;59638;52.126;5.434;2023-05-02T04:44:31;102420.84;;;8.85;95.95
71791;BME280;59638;52.126;5.434;2023-05-02T04:46:57;102423.97;;;8.76;95.93
71791;BME280;59638;52.126;5.434;2023-05-02T04:49:23;102429.56;;;8.70;95.33
71791;BME280;59638;52.126;5.434;2023-05-02T04:51:50;102436.72;;;8.68;95.41
71791;BME280;59638;52.126;5.434;2023-05-02T04:54:17;102445.56;;;8.67;95.14
71791;BME280;59638;52.126;5.434;2023-05-02T04:56:45;102440.19;;;8.68;95.51
71791;BME280;59638;52.126;5.434;2023-05-02T04:59:11;102442.75;;;8.70;95.24
71791;BME280;59638;52.126;5.434;2023-05-02T05:01:38;102442.75;;;8.70;94.94
71791;BME280;59638;52.126;5.434;2023-05-02T05:04:04;102454.97;;;8.71;95.03
71791;BME280;59638;52.126;5.434;2023-05-02T05:06:31;102454.81;;;8.74;94.24
71791;BME280;59638;52.126;5.434;2023-05-02T05:08:58;102451.25;;;8.75;93.57
71791;BME280;59638;52.126;5.434;2023-05-02T05:11:24;102457.25;;;8.77;93.86
71791;BME280;59638;52.126;5.434;2023-05-02T05:13:51;102468.56;;;8.79;94.29
71791;BME280;59638;52.126;5.434;2023-05-02T05:16:18;102466.88;;;8.78;93.42
71791;BME280;59638;52.126;5.434;2023-05-02T05:18:44;102476.53;;;8.78;93.14
71791;BME280;59638;52.126;5.434;2023-05-02T05:21:11;102477.41;;;8.78;93.75
71791;BME280;59638;52.126;5.434;2023-05-02T05:23:37;102478.16;;;8.80;92.91
71791;BME280;59638;52.126;5.434;2023-05-02T05:26:10;102486.06;;;8.80;92.95
71791;BME280;59638;52.126;5.434;2023-05-02T05:28:37;102495.66;;;8.81;92.61
71791;BME280;59638;52.126;5.434;2023-05-02T05:31:08;102491.16;;;8.83;92.25
71791;BME280;59638;52.126;5.434;2023-05-02T05:33:39;102497.34;;;8.82;92.38
71791;BME280;59638;52.126;5.434;2023-05-02T05:36:10;102488.94;;;8.76;92.61
71791;BME280;59638;52.126;5.434;2023-05-02T05:38:37;102498.31;;;8.65;91.97
71791;BME280;59638;52.126;5.434;2023-05-02T05:41:04;102503.72;;;8.62;91.77
71791;BME280;59638;52.126;5.434;2023-05-02T05:43:33;102512.31;;;8.66;91.48
71791;BME280;59638;52.126;5.434;2023-05-02T05:46:03;102517.31;;;8.70;92.04
71791;BME280;59638;52.126;5.434;2023-05-02T05:48:29;102514.59;;;8.72;91.15
71791;BME280;59638;52.126;5.434;2023-05-02T05:50:56;102522.50;;;8.72;91.82
71791;BME280;59638;52.126;5.434;2023-05-02T05:53:22;102526.84;;;8.73;91.80
71791;BME280;59638;52.126;5.434;2023-05-02T05:55:49;102538.38;;;8.70;91.76
71791;BME280;59638;52.126;5.434;2023-05-02T05:58:15;102543.63;;;8.70;92.04
71791;BME280;59638;52.126;5.434;2023-05-02T06:00:42;102544.66;;;8.68;91.17
71791;BME280;59638;52.126;5.434;2023-05-02T06:03:08;102548.22;;;8.67;91.58
71791;BME280;59638;52.126;5.434;2023-05-02T06:05:35;102554.09;;;8.72;91.67
71791;BME280;59638;52.126;5.434;2023-05-02T06:08:02;102547.72;;;8.76;90.99
71791;BME280;59638;52.126;5.434;2023-05-02T06:10:30;102555.19;;;8.84;90.62
71791;BME280;59638;52.126;5.434;2023-05-02T06:12:56;102553.66;;;8.95;90.72
71791;BME280;59638;52.126;5.434;2023-05-02T06:15:23;102563.88;;;9.02;90.30
71791;BME280;59638;52.126;5.434;2023-05-02T06:17:50;102564.72;;;9.02;89.31
71791;BME280;59638;52.126;5.434;2023-05-02T06:20:17;102574.25;;;9.05;89.15
71791;BME280;59638;52.126;5.434;2023-05-02T06:22:44;102578.47;;;9.07;88.49
71791;BME280;59638;52.126;5.434;2023-05-02T06:25:11;102581.53;;;9.31;88.71
71791;BME280;59638;52.126;5.434;2023-05-02T06:27:37;102583.03;;;9.51;88.31
71791;BME280;59638;52.126;5.434;2023-05-02T06:30:04;102581.44;;;9.78;87.71
71791;BME280;59638;52.126;5.434;2023-05-02T06:32:31;102585.31;;;9.87;86.79
71791;BME280;59638;52.126;5.434;2023-05-02T06:34:57;102590.16;;;9.65;86.36
71791;BME280;59638;52.126;5.434;2023-05-02T06:37:24;102600.69;;;9.65;86.14
71791;BME280;59638;52.126;5.434;2023-05-02T06:39:50;102597.50;;;9.74;85.28
71791;BME280;59638;52.126;5.434;2023-05-02T06:42:17;102594.31;;;9.83;85.65
71791;BME280;59638;52.126;5.434;2023-05-02T06:44:43;102596.22;;;9.81;84.74
71791;BME280;59638;52.126;5.434;2023-05-02T06:47:09;102620.25;;;9.61;85.04
71791;BME280;59638;52.126;5.434;2023-05-02T06:49:36;102617.38;;;9.49;86.34
71791;BME280;59638;52.126;5.434;2023-05-02T06:52:02;102622.16;;;9.27;85.63
71791;BME280;59638;52.126;5.434;2023-05-02T06:54:29;102635.41;;;9.10;85.12
71791;BME280;59638;52.126;5.434;2023-05-02T06:56:55;102631.31;;;9.04;86.47
71791;BME280;59638;52.126;5.434;2023-05-02T06:59:22;102634.56;;;9.09;85.13
71791;BME280;59638;52.126;5.434;2023-05-02T07:01:48;102639.81;;;9.09;85.17
71791;BME280;59638;52.126;5.434;2023-05-02T07:04:15;102650.72;;;9.19;85.33
71791;BME280;59638;52.126;5.434;2023-05-02T07:06:41;102653.78;;;9.27;85.83
71791;BME280;59638;52.126;5.434;2023-05-02T07:09:07;102651.06;;;9.29;84.95
71791;BME280;59638;52.126;5.434;2023-05-02T07:11:34;102661.34;;;9.33;85.27
71791;BME280;59638;52.126;5.434;2023-05-02T07:14:00;102659.13;;;9.41;85.00
71791;BME280;59638;52.126;5.434;2023-05-02T07:16:27;102660.91;;;9.41;83.87
71791;BME280;59638;52.126;5.434;2023-05-02T07:18:53;102660.41;;;9.34;84.39
71791;BME280;59638;52.126;5.434;2023-05-02T07:21:19;102666.88;;;9.44;84.14
71791;BME280;59638;52.126;5.434;2023-05-02T07:23:46;102672.09;;;9.76;84.44
71791;BME280;59638;52.126;5.434;2023-05-02T07:26:12;102676.03;;;9.69;82.85
71791;BME280;59638;52.126;5.434;2023-05-02T07:28:39;102685.75;;;9.52;83.17
71791;BME280;59638;52.126;5.434;2023-05-02T07:31:05;102687.59;;;9.50;83.46
71791;BME280;59638;52.126;5.434;2023-05-02T07:33:32;102695.50;;;9.50;83.63
71791;BME280;59638;52.126;5.434;2023-05-02T07:36:00;102680.81;;;9.46;82.73
71791;BME280;59638;52.126;5.434;2023-05-02T07:38:27;102688.13;;;9.41;82.10
71791;BME280;59638;52.126;5.434;2023-05-02T07:40:56;102687.44;;;9.53;81.60
71791;BME280;59638;52.126;5.434;2023-05-02T07:43:23;102691.69;;;9.72;81.65
71791;BME280;59638;52.126;5.434;2023-05-02T07:45:49;102695.78;;;9.62;80.14
71791;BME280;59638;52.126;5.434;2023-05-02T07:48:16;102693.88;;;9.64;81.18
71791;BME280;59638;52.126;5.434;2023-05-02T07:50:42;102698.66;;;9.73;80.93
71791;BME280;59638;52.126;5.434;2023-05-02T07:53:09;102696.44;;;9.81;80.24
71791;BME280;59638;52.126;5.434;2023-05-02T07:55:36;102701.72;;;9.81;80.22
71791;BME280;59638;52.126;5.434;2023-05-02T07:58:02;102697.53;;;9.77;79.12
71791;BME280;59638;52.126;5.434;2023-05-02T08:00:29;102707.59;;;9.86;79.25
71791;BME280;59638;52.126;5.434;2023-05-02T08:02:55;102705.75;;;10.02;78.29
71791;BME280;59638;52.126;5.434;2023-05-02T08:05:22;102707.44;;;10.03;77.92
71791;BME280;59638;52.126;5.434;2023-05-02T08:07:49;102714.25;;;10.23;77.61
71791;BME280;59638;52.126;5.434;2023-05-02T08:10:15;102710.03;;;10.35;77.03
71791;BME280;59638;52.126;5.434;2023-05-02T08:12:42;102710.22;;;10.32;76.51
71791;BME280;59638;52.126;5.434;2023-05-02T08:15:10;102723.63;;;10.13;77.43
71791;BME280;59638;52.126;5.434;2023-05-02T08:17:37;102725.75;;;10.06;78.92
71791;BME280;59638;52.126;5.434;2023-05-02T08:20:04;102723.50;;;9.85;79.06
71791;BME280;59638;52.126;5.434;2023-05-02T08:22:31;102728.28;;;9.78;79.11
71791;BME280;59638;52.126;5.434;2023-05-02T08:24:57;102731.06;;;9.91;77.90
71791;BME280;59638;52.126;5.434;2023-05-02T08:27:24;102735.00;;;10.14;78.16
71791;BME280;59638;52.126;5.434;2023-05-02T08:29:50;102741.31;;;10.27;75.86
71791;BME280;59638;52.126;5.434;2023-05-02T08:32:16;102726.72;;;10.66;77.33
71791;BME280;59638;52.126;5.434;2023-05-02T08:34:43;102726.06;;;11.19;75.23
71791;BME280;59638;52.126;5.434;2023-05-02T08:37:09;102732.78;;;11.25;74.75
71791;BME280;59638;52.126;5.434;2023-05-02T08:39:37;102742.78;;;11.20;72.95
71791;BME280;59638;52.126;5.434;2023-05-02T08:42:07;102742.63;;;12.05;69.47
71791;BME280;59638;52.126;5.434;2023-05-02T08:44:33;102742.69;;;11.77;68.17
71791;BME280;59638;52.126;5.434;2023-05-02T08:47:00;102742.56;;;11.51;69.58
71791;BME280;59638;52.126;5.434;2023-05-02T08:49:30;102746.72;;;11.41;68.58
71791;BME280;59638;52.126;5.434;2023-05-02T08:51:58;102752.13;;;11.25;69.01
71791;BME280;59638;52.126;5.434;2023-05-02T08:54:25;102756.53;;;11.53;69.45
71791;BME280;59638;52.126;5.434;2023-05-02T08:56:55;102758.94;;;11.70;67.65
71791;BME280;59638;52.126;5.434;2023-05-02T08:59:21;102760.19;;;12.06;67.56
71791;BME280;59638;52.126;5.434;2023-05-02T09:01:53;102763.28;;;11.86;67.53
71791;BME280;59638;52.126;5.434;2023-05-02T09:04:22;102765.66;;;11.90;65.46
71791;BME280;59638;52.126;5.434;2023-05-02T09:06:49;102763.28;;;11.86;64.45
71791;BME280;59638;52.126;5.434;2023-05-02T09:09:16;102772.19;;;12.12;66.31
71791;BME280;59638;52.126;5.434;2023-05-02T09:11:46;102765.84;;;12.67;60.61
71791;BME280;59638;52.126;5.434;2023-05-02T09:14:16;102781.47;;;12.32;64.36
71791;BME280;59638;52.126;5.434;2023-05-02T09:16:42;102778.72;;;12.06;64.84
71791;BME280;59638;52.126;5.434;2023-05-02T09:19:09;102774.59;;;11.88;63.40
71791;BME280;59638;52.126;5.434;2023-05-02T09:21:37;102774.81;;;11.85;65.72
71791;BME280;59638;52.126;5.434;2023-05-02T09:24:18;102776.53;;;11.71;64.75
71791;BME280;59638;52.126;5.434;2023-05-02T09:27:01;102778.63;;;11.52;64.81
71791;BME280;59638;52.126;5.434;2023-05-02T09:29:29;102788.06;;;11.70;61.84
71791;BME280;59638;52.126;5.434;2023-05-02T09:32:01;102790.66;;;11.99;60.73
71791;BME280;59638;52.126;5.434;2023-05-02T09:34:29;102787.72;;;12.04;61.53
71791;BME280;59638;52.126;5.434;2023-05-02T09:36:56;102790.53;;;12.28;61.86
71791;BME280;59638;52.126;5.434;2023-05-02T09:39:27;102795.91;;;12.53;60.27
71791;BME280;59638;52.126;5.434;2023-05-02T09:41:57;102795.78;;;12.82;58.38
71791;BME280;59638;52.126;5.434;2023-05-02T09:44:25;102796.28;;;14.59;54.39
71791;BME280;59638;52.126;5.434;2023-05-02T09:46:53;102795.63;;;14.68;52.57
71791;BME280;59638;52.126;5.434;2023-05-02T09:52:16;102794.34;;;15.30;51.13
71791;BME280;59638;52.126;5.434;2023-05-02T09:54:43;102791.09;;;15.37;50.98
71791;BME280;59638;52.126;5.434;2023-05-02T09:57:11;102795.22;;;15.75;49.20
71791;BME280;59638;52.126;5.434;2023-05-02T09:59:38;102796.69;;;14.41;51.44
71791;BME280;59638;52.126;5.434;2023-05-02T10:02:05;102799.19;;;14.56;50.32
71791;BME280;59638;52.126;5.434;2023-05-02T10:04:37;102795.22;;;15.64;49.23
71791;BME280;59638;52.126;5.434;2023-05-02T10:07:06;102788.09;;;17.63;45.91
71791;BME280;59638;52.126;5.434;2023-05-02T10:09:36;102794.34;;;17.12;44.13
71791;BME280;59638;52.126;5.434;2023-05-02T10:12:06;102786.38;;;18.51;45.02
71791;BME280;59638;52.126;5.434;2023-05-02T10:14:48;102785.28;;;20.10;41.36
71791;BME280;59638;52.126;5.434;2023-05-02T10:17:23;102798.59;;;18.34;41.76
71791;BME280;59638;52.126;5.434;2023-05-02T10:20:03;102794.56;;;19.16;43.20
71791;BME280;59638;52.126;5.434;2023-05-02T10:22:29;102825.28;;;17.86;40.73
71791;BME280;59638;52.126;5.434;2023-05-02T10:24:56;102830.44;;;15.67;47.42
71791;BME280;59638;52.126;5.434;2023-05-02T10:27:25;102812.41;;;17.30;46.22
71791;BME280;59638;52.126;5.434;2023-05-02T10:29:52;102821.41;;;18.58;42.53
71791;BME280;59638;52.126;5.434;2023-05-02T10:32:20;102820.69;;;18.27;40.95
71791;BME280;59638;52.126;5.434;2023-05-02T10:34:49;102819.31;;;17.63;39.85
71791;BME280;59638;52.126;5.434;2023-05-02T10:37:17;102829.28;;;17.09;41.50
71791;BME280;59638;52.126;5.434;2023-05-02T10:39:44;102823.59;;;17.85;41.46
71791;BME280;59638;52.126;5.434;2023-05-02T10:42:12;102818.56;;;19.72;39.88
71791;BME280;59638;52.126;5.434;2023-05-02T10:44:40;102838.59;;;18.36;39.51
71791;BME280;59638;52.126;5.434;2023-05-02T10:47:23;102821.69;;;18.55;41.43
71791;BME280;59638;52.126;5.434;2023-05-02T10:49:54;102836.13;;;19.10;38.28
71791;BME280;59638;52.126;5.434;2023-05-02T10:52:37;102825.91;;;18.47;39.42
71791;BME280;59638;52.126;5.434;2023-05-02T10:55:17;102822.31;;;19.79;38.27
71791;BME280;59638;52.126;5.434;2023-05-02T11:00:27;102829.25;;;16.79;41.66
71791;BME280;59638;52.126;5.434;2023-05-02T11:02:55;102833.91;;;16.34;43.36
71791;BME280;59638;52.126;5.434;2023-05-02T11:05:22;102831.81;;;17.32;41.42
71791;BME280;59638;52.126;5.434;2023-05-02T11:10:40;102827.75;;;19.33;39.40
71791;BME280;59638;52.126;5.434;2023-05-02T11:13:06;102833.94;;;19.98;37.71
71791;BME280;59638;52.126;5.434;2023-05-02T11:18:01;102848.22;;;17.27;39.83
71791;BME280;59638;52.126;5.434;2023-05-02T11:20:28;102856.50;;;14.71;44.96
71791;BME280;59638;52.126;5.434;2023-05-02T11:25:48;102844.16;;;14.94;45.36
71791;BME280;59638;52.126;5.434;2023-05-02T11:31:05;102844.97;;;17.85;41.20
71791;BME280;59638;52.126;5.434;2023-05-02T11:33:32;102842.81;;;18.67;40.00
71791;BME280;59638;52.126;5.434;2023-05-02T11:35:58;102841.06;;;19.15;38.02
71791;BME280;59638;52.126;5.434;2023-05-02T11:38:26;102835.22;;;19.66;39.36
71791;BME280;59638;52.126;5.434;2023-05-02T11:41:00;102840.66;;;19.47;36.96
71791;BME280;59638;52.126;5.434;2023-05-02T11:43:28;102841.50;;;18.13;40.24
71791;BME280;59638;52.126;5.434;2023-05-02T11:45:58;102841.66;;;18.21;41.92
71791;BME280;59638;52.126;5.434;2023-05-02T11:48:25;102842.25;;;18.73;38.39
71791;BME280;59638;52.126;5.434;2023-05-02T11:51:00;102849.00;;;18.39;41.24
71791;BME280;59638;52.126;5.434;2023-05-02T11:53:32;102852.06;;;18.05;41.49
71791;BME280;59638;52.126;5.434;2023-05-02T11:56:02;102860.63;;;16.87;41.42
71791;BME280;59638;52.126;5.434;2023-05-02T11:58:29;102866.34;;;15.50;45.48
71791;BME280;59638;52.126;5.434;2023-05-02T12:01:10;102865.97;;;15.33;44.01
71791;BME280;59638;52.126;5.434;2023-05-02T12:03:38;102861.22;;;15.14;44.40
71791;BME280;59638;52.126;5.434;2023-05-02T12:06:13;102866.03;;;15.66;45.72
71791;BME280;59638;52.126;5.434;2023-05-02T12:08:44;102871.56;;;15.63;44.70
71791;BME280;59638;52.126;5.434;2023-05-02T12:11:14;102872.38;;;15.41;45.55
71791;BME280;59638;52.126;5.434;2023-05-02T12:13:45;102873.22;;;14.73;47.19
71791;BME280;59638;52.126;5.434;2023-05-02T12:16:13;102893.00;;;14.32;47.73
71791;BME280;59638;52.126;5.434;2023-05-02T12:18:39;102890.84;;;13.64;48.68
71791;BME280;59638;52.126;5.434;2023-05-02T12:21:07;102900.91;;;13.33;50.18
71791;BME280;59638;52.126;5.434;2023-05-02T12:23:34;102898.25;;;13.84;48.71
71791;BME280;59638;52.126;5.434;2023-05-02T12:26:21;102899.06;;;13.98;48.49
71791;BME280;59638;52.126;5.434;2023-05-02T12:28:51;102899.03;;;13.74;47.89
71791;BME280;59638;52.126;5.434;2023-05-02T12:31:19;102890.41;;;13.83;48.37
71791;BME280;59638;52.126;5.434;2023-05-02T12:33:46;102894.66;;;13.60;48.69
71791;BME280;59638;52.126;5.434;2023-05-02T12:36:15;102905.97;;;14.00;46.12
71791;BME280;59638;52.126;5.434;2023-05-02T12:38:50;102908.22;;;13.94;50.32
71791;BME280;59638;52.126;5.434;2023-05-02T12:41:30;102912.81;;;13.53;49.15
71791;BME280;59638;52.126;5.434;2023-05-02T12:43:57;102909.53;;;13.37;47.90
71791;BME280;59638;52.126;5.434;2023-05-02T12:46:25;102910.69;;;13.71;48.78
71791;BME280;59638;52.126;5.434;2023-05-02T12:49:04;102925.44;;;13.50;47.29
71791;BME280;59638;52.126;5.434;2023-05-02T12:51:33;102918.44;;;13.49;50.40
71791;BME280;59638;52.126;5.434;2023-05-02T12:54:00;102916.41;;;13.91;47.31
71791;BME280;59638;52.126;5.434;2023-05-02T12:56:26;102922.69;;;13.51;46.88
71791;BME280;59638;52.126;5.434;2023-05-02T12:58:57;102927.41;;;12.54;48.20
71791;BME280;59638;52.126;5.434;2023-05-02T13:01:32;102924.84;;;12.25;50.43
71791;BME280;59638;52.126;5.434;2023-05-02T13:03:59;102922.22;;;12.79;49.49
71791;BME280;59638;52.126;5.434;2023-05-02T13:06:25;102925.66;;;13.21;48.51
71791;BME280;59638;52.126;5.434;2023-05-02T13:08:52;102922.63;;;13.13;48.87
71791;BME280;59638;52.126;5.434;2023-05-02T13:11:19;102919.75;;;13.03;48.31
71791;BME280;59638;52.126;5.434;2023-05-02T13:13:45;102922.09;;;13.08;49.18
71791;BME280;59638;52.126;5.434;2023-05-02T13:16:12;102914.41;;;12.91;50.29
71791;BME280;59638;52.126;5.434;2023-05-02T13:18:38;102916.97;;;12.65;50.33
71791;BME280;59638;52.126;5.434;2023-05-02T13:21:05;102924.97;;;12.51;51.43
71791;BME280;59638;52.126;5.434;2023-05-02T13:23:32;102930.06;;;12.54;51.15
71791;BME280;59638;52.126;5.434;2023-05-02T13:25:58;102922.31;;;12.78;50.72
71791;BME280;59638;52.126;5.434;2023-05-02T13:28:24;102923.94;;;12.93;50.23
71791;BME280;59638;52.126;5.434;2023-05-02T13:30:51;102933.44;;;13.10;50.70
71791;BME280;59638;52.126;5.434;2023-05-02T13:33:17;102921.81;;;12.86;49.75
71791;BME280;59638;52.126;5.434;2023-05-02T13:35:44;102924.19;;;12.63;50.28